sensor_id;sensor_type;location;lat;lon;timestamp;pressure;altitude;pressure_sealevel;temperature;humidity
74103;BME280;62853;46.166;3.640;2022-12-18T00:01:30;102710.81;;;-8.22;100.00
74103;BME280;62853;46.166;3.640;2022-12-18T00:03:56;102713.28;;;-8.23;100.00
74103;BME280;62853;46.166;3.640;2022-12-18T00:06:24;102710.59;;;-8.26;100.00
74103;BME280;62853;46.166;3.640;2022-12-18T00:08:49;102703.31;;;-8.35;100.00
74103;BME280;62853;46.166;3.640;2022-12-18T00:11:17;102699.72;;;-8.38;100.00
74103;BME280;62853;46.166;3.640;2022-12-18T00:13:43;102707.19;;;-8.43;100.00
74103;BME280;62853;46.166;3.640;2022-12-18T00:16:12;102706.84;;;-8.49;100.00
74103;BME280;62853;46.166;3.640;2022-12-18T00:18:38;102708.75;;;-8.45;100.00
74103;BME280;62853;46.166;3.640;2022-12-18T00:21:06;102707.81;;;-8.47;100.00
74103;BME280;62853;46.166;3.640;2022-12-18T00:23:33;102706.03;;;-8.48;100.00
74103;BME280;62853;46.166;3.640;2022-12-18T00:26:05;102693.91;;;-8.52;100.00
74103;BME280;62853;46.166;3.640;2022-12-18T00:28:31;102688.81;;;-8.52;100.00
74103;BME280;62853;46.166;3.640;2022-12-18T00:31:01;102673.13;;;-8.58;100.00
74103;BME280;62853;46.166;3.640;2022-12-18T00:33:27;102680.09;;;-8.56;100.00
74103;BME280;62853;46.166;3.640;2022-12-18T00:35:52;102667.91;;;-8.62;100.00
74103;BME280;62853;46.166;3.640;2022-12-18T00:38:18;102674.56;;;-8.64;100.00
74103;BME280;62853;46.166;3.640;2022-12-18T00:40:43;102678.56;;;-8.69;100.00
74103;BME280;62853;46.166;3.640;2022-12-18T00:43:09;102677.59;;;-8.71;100.00
74103;BME280;62853;46.166;3.640;2022-12-18T00:45:34;102677.44;;;-8.74;100.00
74103;BME280;62853;46.166;3.640;2022-12-18T00:47:59;102676.56;;;-8.74;100.00
74103;BME280;62853;46.166;3.640;2022-12-18T00:50:25;102679.03;;;-8.76;100.00
74103;BME280;62853;46.166;3.640;2022-12-18T00:52:51;102679.03;;;-8.76;100.00
74103;BME280;62853;46.166;3.640;2022-12-18T00:55:17;102673.84;;;-8.77;100.00
74103;BME280;62853;46.166;3.640;2022-12-18T00:57:43;102686.59;;;-8.77;100.00
74103;BME280;62853;46.166;3.640;2022-12-18T01:00:11;102668.56;;;-8.81;100.00
74103;BME280;62853;46.166;3.640;2022-12-18T01:02:38;102663.94;;;-8.88;100.00
74103;BME280;62853;46.166;3.640;2022-12-18T01:05:04;102680.19;;;-8.86;100.00
74103;BME280;62853;46.166;3.640;2022-12-18T01:07:29;102686.81;;;-8.89;100.00
74103;BME280;62853;46.166;3.640;2022-12-18T01:09:54;102678.91;;;-8.94;100.00
74103;BME280;62853;46.166;3.640;2022-12-18T01:12:20;102684.09;;;-8.92;100.00
74103;BME280;62853;46.166;3.640;2022-12-18T01:14:45;102683.06;;;-8.96;100.00
74103;BME280;62853;46.166;3.640;2022-12-18T01:17:11;102688.97;;;-8.97;100.00
74103;BME280;62853;46.166;3.640;2022-12-18T01:19:36;102693.00;;;-9.01;100.00
74103;BME280;62853;46.166;3.640;2022-12-18T01:22:01;102690.22;;;-9.05;100.00
74103;BME280;62853;46.166;3.640;2022-12-18T01:24:27;102696.81;;;-9.09;100.00
74103;BME280;62853;46.166;3.640;2022-12-18T01:26:52;102702.81;;;-9.08;100.00
74103;BME280;62853;46.166;3.640;2022-12-18T01:29:18;102695.84;;;-9.11;100.00
74103;BME280;62853;46.166;3.640;2022-12-18T01:31:43;102699.03;;;-9.15;100.00
74103;BME280;62853;46.166;3.640;2022-12-18T01:34:09;102694.53;;;-9.19;100.00
74103;BME280;62853;46.166;3.640;2022-12-18T01:36:36;102691.97;;;-9.19;100.00
74103;BME280;62853;46.166;3.640;2022-12-18T01:39:05;102684.19;;;-9.22;100.00
74103;BME280;62853;46.166;3.640;2022-12-18T01:41:32;102686.72;;;-9.22;100.00
74103;BME280;62853;46.166;3.640;2022-12-18T01:47:43;102691.97;;;-9.19;100.00
74103;BME280;62853;46.166;3.640;2022-12-18T01:50:22;102678.81;;;-9.27;100.00
74103;BME280;62853;46.166;3.640;2022-12-18T01:52:56;102680.41;;;-9.29;100.00
74103;BME280;62853;46.166;3.640;2022-12-18T01:55:25;102685.59;;;-9.27;100.00
74103;BME280;62853;46.166;3.640;2022-12-18T01:57:53;102678.09;;;-9.24;100.00
74103;BME280;62853;46.166;3.640;2022-12-18T02:00:21;102677.56;;;-9.19;100.00
74103;BME280;62853;46.166;3.640;2022-12-18T02:02:47;102667.28;;;-9.20;100.00
74103;BME280;62853;46.166;3.640;2022-12-18T02:05:17;102665.50;;;-9.21;100.00
74103;BME280;62853;46.166;3.640;2022-12-18T02:10:34;102672.84;;;-8.96;100.00
74103;BME280;62853;46.166;3.640;2022-12-18T02:13:30;102671.00;;;-8.99;100.00
74103;BME280;62853;46.166;3.640;2022-12-18T02:18:41;102664.69;;;-9.05;100.00
74103;BME280;62853;46.166;3.640;2022-12-18T02:23:56;102671.03;;;-9.13;100.00
74103;BME280;62853;46.166;3.640;2022-12-18T02:26:35;102670.69;;;-9.20;100.00
74103;BME280;62853;46.166;3.640;2022-12-18T02:29:32;102669.91;;;-9.19;100.00
74103;BME280;62853;46.166;3.640;2022-12-18T02:31:57;102666.84;;;-9.28;100.00
74103;BME280;62853;46.166;3.640;2022-12-18T02:34:30;102665.69;;;-9.33;100.00
74103;BME280;62853;46.166;3.640;2022-12-18T02:36:58;102657.78;;;-9.38;100.00
74103;BME280;62853;46.166;3.640;2022-12-18T02:39:26;102648.22;;;-9.42;100.00
74103;BME280;62853;46.166;3.640;2022-12-18T02:41:53;102655.16;;;-9.39;100.00
74103;BME280;62853;46.166;3.640;2022-12-18T02:44:19;102660.88;;;-9.43;100.00
74103;BME280;62853;46.166;3.640;2022-12-18T02:46:46;102656.56;;;-9.44;100.00
74103;BME280;62853;46.166;3.640;2022-12-18T02:57:18;102632.63;;;-9.31;100.00
74103;BME280;62853;46.166;3.640;2022-12-18T03:00:13;102643.78;;;-9.29;100.00
74103;BME280;62853;46.166;3.640;2022-12-18T03:05:13;102646.59;;;-9.25;100.00
74103;BME280;62853;46.166;3.640;2022-12-18T03:07:54;102636.94;;;-9.30;100.00
74103;BME280;62853;46.166;3.640;2022-12-18T03:10:26;102636.47;;;-9.23;100.00
74103;BME280;62853;46.166;3.640;2022-12-18T03:12:59;102629.84;;;-9.20;100.00
74103;BME280;62853;46.166;3.640;2022-12-18T03:15:30;102621.25;;;-9.22;100.00
74103;BME280;62853;46.166;3.640;2022-12-18T03:18:01;102622.94;;;-9.22;100.00
74103;BME280;62853;46.166;3.640;2022-12-18T03:20:31;102617.81;;;-9.22;100.00
74103;BME280;62853;46.166;3.640;2022-12-18T03:23:12;102628.53;;;-9.13;100.00
74103;BME280;62853;46.166;3.640;2022-12-18T03:25:41;102625.97;;;-9.13;100.00
74103;BME280;62853;46.166;3.640;2022-12-18T03:28:12;102617.19;;;-9.18;100.00
74103;BME280;62853;46.166;3.640;2022-12-18T03:30:40;102616.63;;;-9.12;100.00
74103;BME280;62853;46.166;3.640;2022-12-18T03:33:25;102630.47;;;-9.09;100.00
74103;BME280;62853;46.166;3.640;2022-12-18T03:35:52;102626.63;;;-9.17;100.00
74103;BME280;62853;46.166;3.640;2022-12-18T03:38:18;102618.59;;;-9.23;100.00
74103;BME280;62853;46.166;3.640;2022-12-18T03:49:39;102629.88;;;-9.35;100.00
74103;BME280;62853;46.166;3.640;2022-12-18T03:52:11;102627.25;;;-9.36;100.00
74103;BME280;62853;46.166;3.640;2022-12-18T03:54:38;102628.16;;;-9.36;100.00
74103;BME280;62853;46.166;3.640;2022-12-18T03:57:10;102617.47;;;-9.28;100.00
74103;BME280;62853;46.166;3.640;2022-12-18T03:59:38;102604.19;;;-9.38;100.00
74103;BME280;62853;46.166;3.640;2022-12-18T04:02:06;102601.66;;;-9.38;100.00
74103;BME280;62853;46.166;3.640;2022-12-18T04:04:33;102584.88;;;-9.34;100.00
74103;BME280;62853;46.166;3.640;2022-12-18T04:07:00;102587.03;;;-9.25;100.00
74103;BME280;62853;46.166;3.640;2022-12-18T04:09:26;102589.59;;;-9.25;100.00
74103;BME280;62853;46.166;3.640;2022-12-18T04:11:52;102576.56;;;-9.30;100.00
74103;BME280;62853;46.166;3.640;2022-12-18T04:14:17;102584.47;;;-9.25;100.00
74103;BME280;62853;46.166;3.640;2022-12-18T04:16:43;102563.72;;;-9.31;100.00
74103;BME280;62853;46.166;3.640;2022-12-18T04:19:08;102581.03;;;-9.26;100.00
74103;BME280;62853;46.166;3.640;2022-12-18T04:21:34;102574.81;;;-9.31;100.00
74103;BME280;62853;46.166;3.640;2022-12-18T04:23:59;102559.88;;;-9.40;100.00
74103;BME280;62853;46.166;3.640;2022-12-18T04:26:24;102571.13;;;-9.36;100.00
74103;BME280;62853;46.166;3.640;2022-12-18T04:28:50;102570.47;;;-9.48;100.00
74103;BME280;62853;46.166;3.640;2022-12-18T04:31:15;102569.97;;;-9.58;100.00
74103;BME280;62853;46.166;3.640;2022-12-18T04:33:40;102575.22;;;-9.55;100.00
74103;BME280;62853;46.166;3.640;2022-12-18T04:36:06;102586.53;;;-9.49;100.00
74103;BME280;62853;46.166;3.640;2022-12-18T04:38:32;102581.38;;;-9.51;100.00
74103;BME280;62853;46.166;3.640;2022-12-18T04:40:57;102585.38;;;-9.40;100.00
74103;BME280;62853;46.166;3.640;2022-12-18T04:43:23;102588.19;;;-9.35;100.00
74103;BME280;62853;46.166;3.640;2022-12-18T04:45:48;102589.63;;;-9.40;100.00
74103;BME280;62853;46.166;3.640;2022-12-18T04:48:14;102598.78;;;-9.44;100.00
74103;BME280;62853;46.166;3.640;2022-12-18T04:50:39;102603.44;;;-9.51;100.00
74103;BME280;62853;46.166;3.640;2022-12-18T04:53:04;102607.09;;;-9.63;100.00
74103;BME280;62853;46.166;3.640;2022-12-18T04:55:30;102604.00;;;-9.72;100.00
74103;BME280;62853;46.166;3.640;2022-12-18T04:57:55;102603.63;;;-9.78;100.00
74103;BME280;62853;46.166;3.640;2022-12-18T05:00:21;102593.91;;;-9.85;100.00
74103;BME280;62853;46.166;3.640;2022-12-18T05:02:47;102613.41;;;-9.86;100.00
74103;BME280;62853;46.166;3.640;2022-12-18T05:05:12;102606.47;;;-9.88;100.00
74103;BME280;62853;46.166;3.640;2022-12-18T05:07:38;102605.31;;;-9.94;100.00
74103;BME280;62853;46.166;3.640;2022-12-18T05:10:06;102606.47;;;-9.88;100.00
74103;BME280;62853;46.166;3.640;2022-12-18T05:12:32;102603.81;;;-9.90;100.00
74103;BME280;62853;46.166;3.640;2022-12-18T05:14:57;102606.47;;;-9.88;100.00
74103;BME280;62853;46.166;3.640;2022-12-18T05:17:23;102613.41;;;-9.86;100.00
74103;BME280;62853;46.166;3.640;2022-12-18T05:19:48;102620.19;;;-9.86;100.00
74103;BME280;62853;46.166;3.640;2022-12-18T05:22:13;102607.00;;;-9.94;100.00
74103;BME280;62853;46.166;3.640;2022-12-18T05:24:39;102601.72;;;-9.97;100.00
74103;BME280;62853;46.166;3.640;2022-12-18T05:27:04;102604.28;;;-9.97;100.00
74103;BME280;62853;46.166;3.640;2022-12-18T05:29:29;102608.31;;;-10.01;100.00
74103;BME280;62853;46.166;3.640;2022-12-18T05:31:55;102607.44;;;-10.01;100.00
74103;BME280;62853;46.166;3.640;2022-12-18T05:34:20;102600.56;;;-10.02;100.00
74103;BME280;62853;46.166;3.640;2022-12-18T05:36:46;102598.03;;;-10.02;100.00
74103;BME280;62853;46.166;3.640;2022-12-18T05:39:11;102594.44;;;-10.06;100.00
74103;BME280;62853;46.166;3.640;2022-12-18T05:41:37;102590.38;;;-10.02;100.00
74103;BME280;62853;46.166;3.640;2022-12-18T05:44:02;102583.19;;;-9.95;100.00
74103;BME280;62853;46.166;3.640;2022-12-18T05:46:27;102590.13;;;-9.92;100.00
74103;BME280;62853;46.166;3.640;2022-12-18T05:48:53;102584.94;;;-9.94;100.00
74103;BME280;62853;46.166;3.640;2022-12-18T05:51:20;102596.72;;;-9.96;100.00
74103;BME280;62853;46.166;3.640;2022-12-18T05:53:46;102594.94;;;-9.97;100.00
74103;BME280;62853;46.166;3.640;2022-12-18T05:56:17;102595.22;;;-9.92;100.00
74103;BME280;62853;46.166;3.640;2022-12-18T05:58:44;102586.06;;;-9.88;100.00
74103;BME280;62853;46.166;3.640;2022-12-18T06:01:18;102579.22;;;-9.89;100.00
74103;BME280;62853;46.166;3.640;2022-12-18T06:03:44;102576.41;;;-9.94;100.00
74103;BME280;62853;46.166;3.640;2022-12-18T06:06:14;102589.59;;;-9.86;100.00
74103;BME280;62853;46.166;3.640;2022-12-18T06:08:40;102576.22;;;-9.82;100.00
74103;BME280;62853;46.166;3.640;2022-12-18T06:11:06;102577.28;;;-9.79;100.00
74103;BME280;62853;46.166;3.640;2022-12-18T06:13:31;102576.06;;;-9.85;100.00
74103;BME280;62853;46.166;3.640;2022-12-18T06:15:56;102588.78;;;-9.85;100.00
74103;BME280;62853;46.166;3.640;2022-12-18T06:18:22;102592.50;;;-9.80;100.00
74103;BME280;62853;46.166;3.640;2022-12-18T06:20:55;102600.75;;;-9.84;100.00
74103;BME280;62853;46.166;3.640;2022-12-18T06:23:20;102600.94;;;-9.81;100.00
74103;BME280;62853;46.166;3.640;2022-12-18T06:25:46;102591.53;;;-9.82;100.00
74103;BME280;62853;46.166;3.640;2022-12-18T06:28:11;102596.34;;;-9.87;100.00
74103;BME280;62853;46.166;3.640;2022-12-18T06:30:36;102596.03;;;-9.93;100.00
74103;BME280;62853;46.166;3.640;2022-12-18T06:33:02;102590.47;;;-10.01;100.00
74103;BME280;62853;46.166;3.640;2022-12-18T06:35:27;102586.69;;;-10.07;100.00
74103;BME280;62853;46.166;3.640;2022-12-18T06:37:53;102575.09;;;-10.17;100.00
74103;BME280;62853;46.166;3.640;2022-12-18T06:40:18;102587.13;;;-10.15;100.00
74103;BME280;62853;46.166;3.640;2022-12-18T06:42:43;102580.09;;;-10.19;100.00
74103;BME280;62853;46.166;3.640;2022-12-18T06:45:09;102593.00;;;-10.16;100.00
74103;BME280;62853;46.166;3.640;2022-12-18T06:47:34;102587.31;;;-10.12;100.00
74103;BME280;62853;46.166;3.640;2022-12-18T06:50:00;102578.28;;;-10.06;100.00
74103;BME280;62853;46.166;3.640;2022-12-18T06:52:25;102578.09;;;-10.10;100.00
74103;BME280;62853;46.166;3.640;2022-12-18T06:54:50;102570.34;;;-10.11;100.00
74103;BME280;62853;46.166;3.640;2022-12-18T06:57:16;102573.00;;;-10.10;100.00
74103;BME280;62853;46.166;3.640;2022-12-18T06:59:41;102576.22;;;-10.12;100.00
74103;BME280;62853;46.166;3.640;2022-12-18T07:02:11;102571.66;;;-10.18;100.00
74103;BME280;62853;46.166;3.640;2022-12-18T07:04:36;102564.81;;;-10.19;100.00
74103;BME280;62853;46.166;3.640;2022-12-18T07:07:02;102577.19;;;-10.10;100.00
74103;BME280;62853;46.166;3.640;2022-12-18T07:09:27;102574.03;;;-10.06;100.00
74103;BME280;62853;46.166;3.640;2022-12-18T07:11:53;102557.69;;;-10.10;100.00
74103;BME280;62853;46.166;3.640;2022-12-18T07:14:18;102549.97;;;-10.11;100.00
74103;BME280;62853;46.166;3.640;2022-12-18T07:16:43;102560.16;;;-10.11;100.00
74103;BME280;62853;46.166;3.640;2022-12-18T07:19:09;102545.75;;;-10.11;100.00
74103;BME280;62853;46.166;3.640;2022-12-18T07:21:34;102542.50;;;-9.93;100.00
74103;BME280;62853;46.166;3.640;2022-12-18T07:23:59;102530.97;;;-9.86;100.00
74103;BME280;62853;46.166;3.640;2022-12-18T07:26:25;102519.19;;;-9.84;100.00
74103;BME280;62853;46.166;3.640;2022-12-18T07:28:54;102510.81;;;-9.82;100.00
74103;BME280;62853;46.166;3.640;2022-12-18T07:31:21;102513.81;;;-9.74;100.00
74103;BME280;62853;46.166;3.640;2022-12-18T07:33:47;102516.53;;;-9.71;100.00
74103;BME280;62853;46.166;3.640;2022-12-18T07:36:13;102507.47;;;-9.66;100.00
74103;BME280;62853;46.166;3.640;2022-12-18T07:38:39;102500.22;;;-9.58;100.00
74103;BME280;62853;46.166;3.640;2022-12-18T07:41:07;102519.63;;;-9.45;100.00
74103;BME280;62853;46.166;3.640;2022-12-18T07:43:33;102509.75;;;-9.39;100.00
74103;BME280;62853;46.166;3.640;2022-12-18T07:45:58;102506.47;;;-9.37;100.00
74103;BME280;62853;46.166;3.640;2022-12-18T07:48:24;102496.81;;;-9.26;100.00
74103;BME280;62853;46.166;3.640;2022-12-18T07:50:49;102484.09;;;-9.09;100.00
74103;BME280;62853;46.166;3.640;2022-12-18T07:53:15;102490.63;;;-8.98;100.00
74103;BME280;62853;46.166;3.640;2022-12-18T07:55:41;102492.78;;;-8.89;100.00
74103;BME280;62853;46.166;3.640;2022-12-18T07:58:07;102483.59;;;-8.86;100.00
74103;BME280;62853;46.166;3.640;2022-12-18T08:00:33;102471.94;;;-8.81;100.00
74103;BME280;62853;46.166;3.640;2022-12-18T08:02:59;102465.69;;;-8.69;100.00
74103;BME280;62853;46.166;3.640;2022-12-18T08:05:24;102473.81;;;-8.60;100.00
74103;BME280;62853;46.166;3.640;2022-12-18T08:07:50;102471.72;;;-8.51;100.00
74103;BME280;62853;46.166;3.640;2022-12-18T08:10:16;102483.41;;;-8.38;100.00
74103;BME280;62853;46.166;3.640;2022-12-18T08:12:41;102486.47;;;-8.27;100.00
74103;BME280;62853;46.166;3.640;2022-12-18T08:15:08;102473.69;;;-8.27;100.00
74103;BME280;62853;46.166;3.640;2022-12-18T08:17:33;102485.25;;;-8.17;100.00
74103;BME280;62853;46.166;3.640;2022-12-18T08:19:59;102484.03;;;-8.08;100.00
74103;BME280;62853;46.166;3.640;2022-12-18T08:22:24;102485.91;;;-8.04;100.00
74103;BME280;62853;46.166;3.640;2022-12-18T08:24:50;102489.50;;;-8.00;100.00
74103;BME280;62853;46.166;3.640;2022-12-18T08:27:15;102484.91;;;-7.89;100.00
74103;BME280;62853;46.166;3.640;2022-12-18T08:29:40;102480.66;;;-7.89;100.00
74103;BME280;62853;46.166;3.640;2022-12-18T08:32:06;102483.00;;;-7.75;100.00
74103;BME280;62853;46.166;3.640;2022-12-18T08:34:32;102498.69;;;-7.68;100.00
74103;BME280;62853;46.166;3.640;2022-12-18T08:36:57;102488.59;;;-7.64;100.00
74103;BME280;62853;46.166;3.640;2022-12-18T08:39:22;102475.09;;;-7.62;100.00
74103;BME280;62853;46.166;3.640;2022-12-18T08:41:48;102474.41;;;-7.58;100.00
74103;BME280;62853;46.166;3.640;2022-12-18T08:44:33;102470.72;;;-7.45;100.00
74103;BME280;62853;46.166;3.640;2022-12-18T08:47:06;102471.97;;;-7.37;100.00
74103;BME280;62853;46.166;3.640;2022-12-18T08:49:32;102451.66;;;-7.32;100.00
74103;BME280;62853;46.166;3.640;2022-12-18T08:51:57;102460.50;;;-7.25;100.00
74103;BME280;62853;46.166;3.640;2022-12-18T08:54:24;102458.44;;;-7.15;100.00
74103;BME280;62853;46.166;3.640;2022-12-18T08:56:49;102462.19;;;-7.06;100.00
74103;BME280;62853;46.166;3.640;2022-12-18T08:59:18;102462.66;;;-6.96;100.00
74103;BME280;62853;46.166;3.640;2022-12-18T09:01:44;102449.16;;;-6.92;100.00
74103;BME280;62853;46.166;3.640;2022-12-18T09:04:10;102448.81;;;-6.80;100.00
74103;BME280;62853;46.166;3.640;2022-12-18T09:06:36;102456.06;;;-6.69;100.00
74103;BME280;62853;46.166;3.640;2022-12-18T09:09:02;102449.50;;;-6.63;100.00
74103;BME280;62853;46.166;3.640;2022-12-18T09:11:28;102458.34;;;-6.56;100.00
74103;BME280;62853;46.166;3.640;2022-12-18T09:13:55;102464.78;;;-6.45;100.00
74103;BME280;62853;46.166;3.640;2022-12-18T09:16:22;102473.59;;;-6.38;100.00
74103;BME280;62853;46.166;3.640;2022-12-18T09:18:47;102484.28;;;-6.27;100.00
74103;BME280;62853;46.166;3.640;2022-12-18T09:21:17;102477.72;;;-6.21;100.00
74103;BME280;62853;46.166;3.640;2022-12-18T09:23:44;102479.69;;;-6.15;100.00
74103;BME280;62853;46.166;3.640;2022-12-18T09:26:14;102481.81;;;-6.05;100.00
74103;BME280;62853;46.166;3.640;2022-12-18T09:28:39;102463.25;;;-5.97;100.00
74103;BME280;62853;46.166;3.640;2022-12-18T09:31:06;102453.06;;;-5.96;100.00
74103;BME280;62853;46.166;3.640;2022-12-18T09:33:37;102447.44;;;-5.86;100.00
74103;BME280;62853;46.166;3.640;2022-12-18T09:36:04;102449.31;;;-5.82;100.00
74103;BME280;62853;46.166;3.640;2022-12-18T09:38:30;102442.69;;;-5.76;100.00
74103;BME280;62853;46.166;3.640;2022-12-18T09:41:00;102455.91;;;-5.66;100.00
74103;BME280;62853;46.166;3.640;2022-12-18T09:43:35;102443.13;;;-5.64;100.00
74103;BME280;62853;46.166;3.640;2022-12-18T09:46:06;102447.13;;;-5.48;100.00
74103;BME280;62853;46.166;3.640;2022-12-18T09:48:39;102437.09;;;-5.42;100.00
74103;BME280;62853;46.166;3.640;2022-12-18T09:51:13;102443.63;;;-5.28;100.00
74103;BME280;62853;46.166;3.640;2022-12-18T09:53:41;102439.72;;;-5.16;100.00
74103;BME280;62853;46.166;3.640;2022-12-18T09:56:16;102418.47;;;-5.12;100.00
74103;BME280;62853;46.166;3.640;2022-12-18T09:58:47;102419.41;;;-5.10;100.00
74103;BME280;62853;46.166;3.640;2022-12-18T10:01:18;102433.56;;;-4.97;100.00
74103;BME280;62853;46.166;3.640;2022-12-18T10:03:45;102428.44;;;-4.96;100.00
74103;BME280;62853;46.166;3.640;2022-12-18T10:06:15;102421.19;;;-4.83;100.00
74103;BME280;62853;46.166;3.640;2022-12-18T10:08:57;102413.81;;;-4.73;100.00
74103;BME280;62853;46.166;3.640;2022-12-18T10:11:45;102423.25;;;-4.73;100.00
74103;BME280;62853;46.166;3.640;2022-12-18T10:14:47;102428.69;;;-4.64;100.00
74103;BME280;62853;46.166;3.640;2022-12-18T10:27:54;102420.13;;;-4.10;100.00
74103;BME280;62853;46.166;3.640;2022-12-18T10:30:23;102415.03;;;-4.08;100.00
74103;BME280;62853;46.166;3.640;2022-12-18T10:32:48;102401.28;;;-4.09;100.00
74103;BME280;62853;46.166;3.640;2022-12-18T10:35:23;102400.78;;;-3.97;100.00
74103;BME280;62853;46.166;3.640;2022-12-18T10:41:02;102379.50;;;-3.92;100.00
74103;BME280;62853;46.166;3.640;2022-12-18T10:43:35;102387.31;;;-3.88;100.00
74103;BME280;62853;46.166;3.640;2022-12-18T10:48:35;102373.03;;;-3.79;100.00
74103;BME280;62853;46.166;3.640;2022-12-18T10:51:02;102368.19;;;-3.68;100.00
74103;BME280;62853;46.166;3.640;2022-12-18T10:53:29;102371.78;;;-3.61;100.00
74103;BME280;62853;46.166;3.640;2022-12-18T10:55:58;102376.47;;;-3.48;100.00
74103;BME280;62853;46.166;3.640;2022-12-18T10:58:26;102361.91;;;-3.46;100.00
74103;BME280;62853;46.166;3.640;2022-12-18T11:03:41;102337.25;;;-3.38;100.00
74103;BME280;62853;46.166;3.640;2022-12-18T11:06:14;102339.22;;;-3.29;100.00
74103;BME280;62853;46.166;3.640;2022-12-18T11:08:42;102335.94;;;-3.23;100.00
74103;BME280;62853;46.166;3.640;2022-12-18T11:11:22;102332.75;;;-3.13;100.00
74103;BME280;62853;46.166;3.640;2022-12-18T11:14:17;102345.84;;;-3.04;100.00
74103;BME280;62853;46.166;3.640;2022-12-18T11:16:46;102348.56;;;-2.99;100.00
74103;BME280;62853;46.166;3.640;2022-12-18T11:19:33;102350.44;;;-2.92;100.00
74103;BME280;62853;46.166;3.640;2022-12-18T11:22:01;102346.09;;;-2.94;100.00
74103;BME280;62853;46.166;3.640;2022-12-18T11:24:31;102341.91;;;-2.91;100.00
74103;BME280;62853;46.166;3.640;2022-12-18T11:27:01;102324.66;;;-2.93;100.00
74103;BME280;62853;46.166;3.640;2022-12-18T11:29:39;102320.66;;;-2.81;100.00
74103;BME280;62853;46.166;3.640;2022-12-18T11:34:41;102302.84;;;-2.71;100.00
74103;BME280;62853;46.166;3.640;2022-12-18T11:37:09;102303.19;;;-2.56;100.00
74103;BME280;62853;46.166;3.640;2022-12-18T11:39:40;102307.38;;;-2.61;100.00
74103;BME280;62853;46.166;3.640;2022-12-18T11:47:50;102310.53;;;-2.35;100.00
74103;BME280;62853;46.166;3.640;2022-12-18T11:50:21;102315.00;;;-2.28;100.00
74103;BME280;62853;46.166;3.640;2022-12-18T11:52:49;102314.28;;;-2.22;100.00
74103;BME280;62853;46.166;3.640;2022-12-18T11:55:19;102304.75;;;-2.25;100.00
74103;BME280;62853;46.166;3.640;2022-12-18T12:00:30;102302.13;;;-2.28;100.00
74103;BME280;62853;46.166;3.640;2022-12-18T12:03:24;102284.84;;;-2.30;100.00
74103;BME280;62853;46.166;3.640;2022-12-18T12:17:29;102258.53;;;-2.14;100.00
74103;BME280;62853;46.166;3.640;2022-12-18T12:26:33;102256.31;;;-1.95;100.00
74103;BME280;62853;46.166;3.640;2022-12-18T12:31:47;102249.47;;;-1.93;100.00
74103;BME280;62853;46.166;3.640;2022-12-18T12:34:25;102249.41;;;-1.96;100.00
74103;BME280;62853;46.166;3.640;2022-12-18T12:37:21;102250.38;;;-1.90;100.00
74103;BME280;62853;46.166;3.640;2022-12-18T12:39:52;102237.34;;;-1.97;100.00
74103;BME280;62853;46.166;3.640;2022-12-18T12:42:38;102239.13;;;-1.93;100.00
74103;BME280;62853;46.166;3.640;2022-12-18T12:45:35;102226.38;;;-1.84;100.00
74103;BME280;62853;46.166;3.640;2022-12-18T12:48:06;102227.28;;;-1.83;100.00
74103;BME280;62853;46.166;3.640;2022-12-18T12:50:35;102220.47;;;-1.78;100.00
74103;BME280;62853;46.166;3.640;2022-12-18T12:53:06;102212.88;;;-1.69;100.00
74103;BME280;62853;46.166;3.640;2022-12-18T12:55:32;102214.75;;;-1.60;100.00
74103;BME280;62853;46.166;3.640;2022-12-18T13:00:33;102206.16;;;-1.61;100.00
74103;BME280;62853;46.166;3.640;2022-12-18T13:03:23;102200.91;;;-1.64;100.00
74103;BME280;62853;46.166;3.640;2022-12-18T13:06:04;102196.00;;;-1.52;100.00
74103;BME280;62853;46.166;3.640;2022-12-18T13:08:53;102197.78;;;-1.46;100.00
74103;BME280;62853;46.166;3.640;2022-12-18T13:14:30;102192.56;;;-1.49;100.00
74103;BME280;62853;46.166;3.640;2022-12-18T13:17:16;102186.53;;;-1.50;100.00
74103;BME280;62853;46.166;3.640;2022-12-18T13:19:42;102176.94;;;-1.57;100.00
74103;BME280;62853;46.166;3.640;2022-12-18T13:22:22;102178.69;;;-1.54;100.00
74103;BME280;62853;46.166;3.640;2022-12-18T13:24:48;102179.53;;;-1.55;100.00
74103;BME280;62853;46.166;3.640;2022-12-18T13:49:06;102156.16;;;-1.63;100.00
74103;BME280;62853;46.166;3.640;2022-12-18T13:51:48;102157.91;;;-1.60;100.00
74103;BME280;62853;46.166;3.640;2022-12-18T13:54:21;102164.97;;;-1.52;100.00
74103;BME280;62853;46.166;3.640;2022-12-18T13:56:49;102158.03;;;-1.54;100.00
74103;BME280;62853;46.166;3.640;2022-12-18T13:59:24;102152.94;;;-1.50;100.00
74103;BME280;62853;46.166;3.640;2022-12-18T14:02:04;102152.94;;;-1.50;100.00
74103;BME280;62853;46.166;3.640;2022-12-18T14:04:35;102165.94;;;-1.43;100.00
74103;BME280;62853;46.166;3.640;2022-12-18T14:07:11;102161.66;;;-1.44;100.00
74103;BME280;62853;46.166;3.640;2022-12-18T14:09:41;102156.56;;;-1.40;100.00
74103;BME280;62853;46.166;3.640;2022-12-18T14:12:16;102144.34;;;-1.47;100.00
74103;BME280;62853;46.166;3.640;2022-12-18T14:15:00;102164.25;;;-1.43;100.00
74103;BME280;62853;46.166;3.640;2022-12-18T14:17:26;102161.63;;;-1.46;100.00
74103;BME280;62853;46.166;3.640;2022-12-18T14:19:52;102154.66;;;-1.48;100.00
74103;BME280;62853;46.166;3.640;2022-12-18T14:22:24;102151.25;;;-1.47;100.00
74103;BME280;62853;46.166;3.640;2022-12-18T14:27:45;102136.53;;;-1.53;100.00
74103;BME280;62853;46.166;3.640;2022-12-18T14:35:31;102139.91;;;-1.57;100.00
74103;BME280;62853;46.166;3.640;2022-12-18T14:40:42;102149.31;;;-1.61;100.00
74103;BME280;62853;46.166;3.640;2022-12-18T14:43:11;102150.16;;;-1.60;100.00
74103;BME280;62853;46.166;3.640;2022-12-18T14:45:39;102156.97;;;-1.65;100.00
74103;BME280;62853;46.166;3.640;2022-12-18T14:50:38;102143.16;;;-1.67;100.00